Time;durP1;ratioP1;P1;durP2;ratioP2;P2;SDS_P1;SDS_P2;PMS_P1;PMS_P2;Temp;Humidity;BMP_temperature;BMP_pressure;BME280_temperature;BME280_humidity;BME280_pressure;Samples;Min_cycle;Max_cycle;Signal;HPM_P1;HPM_P2
2022/11/19 00:00:21;;;;;;;29.33;14.52;;;;;;;-143.48;83.95;79307.31;5053203;28;20039;-33
2022/11/19 00:02:46;;;;;;;27.23;13.95;;;;;;;-143.48;84.42;79315.25;5053532;28;20025;-33
2022/11/19 00:05:11;;;;;;;28.98;15.30;;;;;;;-143.48;83.91;79307.31;5035565;28;20360;-33
2022/11/19 00:07:37;;;;;;;30.60;14.70;;;;;;;-143.48;83.95;79311.28;5035629;28;20092;-33
2022/11/19 00:10:02;;;;;;;28.85;14.63;;;;;;;-143.48;83.84;79345.00;5053050;28;20021;-33
2022/11/19 00:15:11;;;;;;;32.13;14.27;;;;;;;-143.48;85.42;79339.03;5053358;28;20071;-33
2022/11/19 00:17:37;;;;;;;28.30;14.02;;;;;;;-143.48;84.53;79352.94;5053334;28;20068;-34
2022/11/19 00:20:02;;;;;;;33.10;13.93;;;;;;;-143.48;84.08;79335.06;5052834;28;20419;-33
2022/11/19 00:22:27;;;;;;;26.95;13.82;;;;;;;-143.48;83.67;79341.03;5053583;28;20037;-33
2022/11/19 00:24:52;;;;;;;29.55;13.75;;;;;;;-143.48;83.69;79321.19;5052995;28;20112;-33
2022/11/19 00:27:18;;;;;;;25.73;13.32;;;;;;;-143.48;84.03;79354.91;5053324;28;20017;-33
2022/11/19 00:29:43;;;;;;;28.17;14.20;;;;;;;-143.48;83.82;79345.00;5053225;28;20430;-33
2022/11/19 00:32:08;;;;;;;23.98;12.52;;;;;;;-143.48;83.54;79323.16;5052864;28;20463;-33
2022/11/19 00:34:34;;;;;;;30.63;13.20;;;;;;;-143.48;82.92;79335.06;5053457;28;20021;-33
2022/11/19 00:36:59;;;;;;;26.15;13.13;;;;;;;-143.48;82.91;79346.97;5057354;28;20056;-33
2022/11/19 00:39:24;;;;;;;24.67;12.32;;;;;;;-143.48;83.58;79364.84;5057143;28;20025;-33
2022/11/19 00:41:49;;;;;;;25.80;12.95;;;;;;;-143.48;83.92;79345.00;5056772;28;20104;-33
2022/11/19 00:44:15;;;;;;;28.60;13.07;;;;;;;-143.48;83.21;79325.16;5056750;28;20081;-33
2022/11/19 00:46:40;;;;;;;28.55;13.55;;;;;;;-143.48;82.91;79350.94;5056715;28;20024;-33
2022/11/19 00:49:05;;;;;;;24.65;12.80;;;;;;;-143.48;82.62;79325.16;5038812;28;20033;-33
2022/11/19 00:51:30;;;;;;;23.75;12.73;;;;;;;-143.48;82.18;79323.16;5056930;28;20025;-33
2022/11/19 00:53:56;;;;;;;22.23;12.63;;;;;;;-143.48;81.60;79343.00;5056749;28;20039;-33
2022/11/19 00:56:23;;;;;;;26.88;13.00;;;;;;;-143.48;82.02;79372.75;5056447;28;20460;-33
2022/11/19 00:58:50;;;;;;;24.27;12.93;;;;;;;-143.48;82.43;79360.88;5056522;28;20028;-33
2022/11/19 01:01:17;;;;;;;28.80;13.45;;;;;;;-143.48;82.10;79368.78;5039005;28;20029;-33
2022/11/19 01:03:46;;;;;;;25.90;12.88;;;;;;;-143.48;82.04;79366.81;5056629;28;20036;-33
2022/11/19 01:06:13;;;;;;;23.05;12.60;;;;;;;-143.48;82.15;79392.59;5056629;28;20025;-33
2022/11/19 01:08:39;;;;;;;25.65;13.30;;;;;;;-143.48;82.45;79380.69;5056412;28;20032;-33
2022/11/19 01:11:09;;;;;;;26.95;13.98;;;;;;;-143.48;83.59;79450.13;5056204;28;20036;-33
2022/11/19 01:13:36;;;;;;;28.92;13.45;;;;;;;-143.48;83.77;79424.34;5056181;28;20115;-33
2022/11/19 01:16:04;;;;;;;29.48;14.48;;;;;;;-143.48;82.95;79392.59;5055879;28;20074;-33
2022/11/19 01:18:30;;;;;;;28.42;14.38;;;;;;;-143.48;83.17;79428.31;5055877;28;20111;-32
2022/11/19 01:20:55;;;;;;;26.48;12.93;;;;;;;-143.48;82.88;79424.34;5055742;28;20096;-32
2022/11/19 01:23:21;;;;;;;26.05;12.93;;;;;;;-143.48;81.81;79414.44;5055960;28;20039;-33
2022/11/19 01:25:46;;;;;;;25.70;13.57;;;;;;;-143.48;81.79;79414.44;5055823;28;20482;-33
2022/11/19 01:28:12;;;;;;;26.40;13.02;;;;;;;-143.48;82.17;79462.03;5056200;28;20522;-32
2022/11/19 01:30:41;;;;;;;26.75;13.50;;;;;;;-143.48;82.16;79438.22;5055900;28;20472;-32
2022/11/19 01:33:07;;;;;;;29.60;14.43;;;;;;;-143.48;82.07;79422.34;5055845;28;20033;-32
2022/11/19 01:35:33;;;;;;;27.70;14.70;;;;;;;-143.48;80.98;79416.41;5055725;28;20531;-32
2022/11/19 01:37:59;;;;;;;25.02;13.98;;;;;;;-143.48;81.00;79418.38;5038272;28;20352;-32
2022/11/19 01:40:25;;;;;;;26.00;13.95;;;;;;;-143.48;80.21;79420.38;5055664;28;20021;-32
2022/11/19 01:42:52;;;;;;;26.92;13.80;;;;;;;-143.48;80.70;79430.28;5055901;28;20033;-32
2022/11/19 01:45:35;;;;;;;27.88;14.38;;;;;;;-143.48;80.58;79428.31;5055659;28;20025;-32
2022/11/19 01:48:10;;;;;;;28.63;14.40;;;;;;;-143.48;81.22;79450.13;5054914;28;20054;-33
2022/11/19 01:50:49;;;;;;;32.58;16.20;;;;;;;-143.48;81.61;79456.09;5056108;28;20024;-34
2022/11/19 01:53:15;;;;;;;29.55;15.68;;;;;;;-143.48;81.60;79460.06;5055748;28;20368;-32
2022/11/19 01:55:42;;;;;;;32.10;16.40;;;;;;;-143.48;82.27;79458.06;5055363;28;20033;-32
2022/11/19 01:58:10;;;;;;;30.77;16.55;;;;;;;-143.48;80.82;79456.09;5055546;28;20360;-33
2022/11/19 02:00:35;;;;;;;32.55;17.60;;;;;;;-143.48;80.95;79475.91;5055843;28;20096;-32
2022/11/19 02:03:01;;;;;;;29.65;16.35;;;;;;;-143.48;81.43;79489.81;5055558;28;20049;-32
2022/11/19 02:05:27;;;;;;;33.17;17.08;;;;;;;-143.48;81.03;79466.00;5055539;28;20063;-33
2022/11/19 02:07:55;;;;;;;30.92;16.52;;;;;;;-143.48;80.52;79487.81;5055735;28;20032;-32
2022/11/19 02:10:38;;;;;;;31.98;17.40;;;;;;;-143.48;80.12;79475.91;5055018;28;20044;-32
2022/11/19 02:13:18;;;;;;;33.00;17.98;;;;;;;-143.48;80.78;79495.75;5055654;28;20367;-32
2022/11/19 02:15:52;;;;;;;36.95;17.33;;;;;;;-143.48;80.70;79519.56;5055193;28;20085;-32
2022/11/19 02:18:18;;;;;;;35.20;17.67;;;;;;;-143.48;81.43;79503.69;5055537;28;20036;-31
2022/11/19 02:20:45;;;;;;;33.10;17.55;;;;;;;-143.48;81.33;79521.53;5054738;28;20040;-32
2022/11/19 02:23:19;;;;;;;32.10;17.30;;;;;;;-143.48;80.51;79519.56;5055211;28;20025;-32
2022/11/19 02:26:09;;;;;;;30.10;16.13;;;;;;;-143.48;79.58;79489.81;5054795;28;20029;-33
2022/11/19 02:28:39;;;;;;;28.45;16.08;;;;;;;-143.48;78.20;79535.44;5055393;28;20487;-32
2022/11/19 02:31:18;;;;;;;32.70;17.70;;;;;;;-143.48;79.82;79523.53;5054718;28;20476;-32
2022/11/19 02:33:56;;;;;;;33.75;17.33;;;;;;;-143.48;79.45;79551.31;5054657;28;20032;-31
2022/11/19 02:36:26;;;;;;;31.58;18.00;;;;;;;-143.48;79.37;79519.56;5054993;28;20021;-32
2022/11/19 02:39:03;;;;;;;33.75;16.88;;;;;;;-143.48;78.57;79513.63;5054651;28;20037;-32
2022/11/19 02:41:36;;;;;;;32.88;17.15;;;;;;;-143.48;79.10;79539.41;5054815;28;20025;-32
2022/11/19 02:47:21;;;;;;;36.03;18.27;;;;;;;-143.48;78.77;79521.53;5054967;28;20767;-33
2022/11/19 02:49:49;;;;;;;32.00;17.60;;;;;;;-143.48;77.69;79535.44;5054570;28;20025;-33
2022/11/19 02:52:16;;;;;;;33.58;18.10;;;;;;;-143.48;77.97;79573.13;5054810;28;20021;-32
2022/11/19 02:54:41;;;;;;;33.50;19.05;;;;;;;-143.48;78.67;79543.38;5054754;28;20028;-32
2022/11/19 02:57:09;;;;;;;36.25;18.90;;;;;;;-143.48;78.00;79577.09;5054111;28;20029;-32
2022/11/19 03:06:09;;;;;;;35.17;18.73;;;;;;;-143.48;77.88;79533.44;5054563;28;20074;-32
2022/11/19 03:08:35;;;;;;;34.13;18.60;;;;;;;-143.48;78.26;79557.25;5053975;28;20463;-32
2022/11/19 03:11:09;;;;;;;34.92;19.15;;;;;;;-143.48;78.21;79553.28;5054004;28;20036;-33
2022/11/19 03:16:42;;;;;;;35.20;19.20;;;;;;;-143.48;77.62;79589.00;5054406;28;20499;-32
2022/11/19 03:19:17;;;;;;;;;;;;;;;-143.48;76.62;79594.94;5054106;28;20128;-32
2022/11/19 03:21:53;;;;;;;33.95;18.02;;;;;;;-143.48;76.59;79571.13;5054308;28;19931;-33
2022/11/19 03:24:40;;;;;;;32.67;18.30;;;;;;;-143.48;75.85;79594.94;5053617;28;20025;-32
2022/11/19 03:27:25;;;;;;;35.42;19.15;;;;;;;-143.48;76.41;79596.94;5053869;28;20020;-32
2022/11/19 03:29:54;;;;;;;33.28;17.45;;;;;;;-143.48;74.63;79579.06;5053717;28;20406;-32
2022/11/19 03:32:26;;;;;;;34.67;18.60;;;;;;;-143.48;76.04;79581.06;5053624;28;20028;-32
2022/11/19 03:34:57;;;;;;;31.75;18.10;;;;;;;-143.48;75.98;79606.84;5054155;28;20029;-32
2022/11/19 03:37:26;;;;;;;32.33;17.58;;;;;;;-143.48;75.95;79600.91;5053403;28;20414;-32
2022/11/19 03:39:56;;;;;;;29.40;17.08;;;;;;;-143.48;76.83;79618.75;5053716;28;20096;-32
2022/11/19 03:42:24;;;;;;;36.47;18.45;;;;;;;-143.48;76.75;79612.81;5053474;28;20033;-32
2022/11/19 03:44:54;;;;;;;33.70;18.67;;;;;;;-143.48;75.93;79614.78;5053699;28;20025;-32
2022/11/19 03:47:29;;;;;;;30.20;17.45;;;;;;;-143.48;76.29;79610.81;5053948;28;20048;-32
2022/11/19 03:50:01;;;;;;;31.80;17.55;;;;;;;-143.48;77.04;79644.53;5053464;28;20063;-32
2022/11/19 03:52:26;;;;;;;30.48;18.00;;;;;;;-143.48;77.41;79602.88;5053349;28;20103;-32
2022/11/19 03:54:52;;;;;;;30.50;17.55;;;;;;;-143.48;77.45;79654.47;5053290;28;20108;-32
2022/11/19 03:57:18;;;;;;;31.83;17.70;;;;;;;-143.48;77.07;79644.53;5053230;28;20021;-32
2022/11/19 03:59:45;;;;;;;30.48;17.08;;;;;;;-143.48;76.93;79640.56;5053367;28;20025;-32
2022/11/19 04:02:12;;;;;;;28.83;16.65;;;;;;;-143.48;76.77;79666.38;5053769;28;20033;-32
2022/11/19 04:04:38;;;;;;;28.38;17.38;;;;;;;-143.48;76.92;79682.25;5053418;28;20051;-32
2022/11/19 04:07:05;;;;;;;32.40;17.85;;;;;;;-143.48;76.70;79664.38;5053375;28;20029;-33
2022/11/19 04:09:31;;;;;;;28.30;16.58;;;;;;;-143.48;76.72;79654.47;5053031;28;20087;-32
2022/11/19 04:11:56;;;;;;;30.25;17.38;;;;;;;-143.48;75.77;79642.56;5053007;28;20107;-33
2022/11/19 04:14:21;;;;;;;31.13;17.75;;;;;;;-143.48;76.22;79660.41;5053267;28;20074;-32
2022/11/19 04:16:46;;;;;;;27.95;16.63;;;;;;;-143.48;76.25;79690.16;5053302;28;20464;-33
2022/11/19 04:19:12;;;;;;;29.73;17.60;;;;;;;-143.48;76.67;79678.28;5053061;28;20053;-33
2022/11/19 04:21:37;;;;;;;26.00;15.57;;;;;;;-143.48;76.11;79668.34;5052959;28;20039;-32
2022/11/19 04:24:03;;;;;;;26.48;16.33;;;;;;;-143.48;75.78;79672.31;5053213;28;20050;-32
2022/11/19 04:26:28;;;;;;;27.45;16.05;;;;;;;-143.48;75.97;79719.94;5053196;28;20361;-33
2022/11/19 04:28:53;;;;;;;27.58;16.13;;;;;;;-143.48;76.56;79731.84;5053457;28;20074;-32
2022/11/19 04:31:19;;;;;;;28.08;15.45;;;;;;;-143.48;76.26;79741.75;5053501;28;20024;-33
2022/11/19 04:33:44;;;;;;;25.00;14.82;;;;;;;-143.48;75.46;79751.66;5034867;28;20086;-32
2022/11/19 04:36:10;;;;;;;26.40;15.65;;;;;;;-143.48;74.79;79731.84;5053101;28;20096;-32
2022/11/19 04:38:35;;;;;;;32.88;14.68;;;;;;;-143.48;75.63;79747.69;5053080;28;20036;-32
2022/11/19 04:41:00;;;;;;;29.70;15.98;;;;;;;-143.48;74.92;79719.94;5052634;28;20415;-32
2022/11/19 04:43:26;;;;;;;25.35;13.98;;;;;;;-143.48;74.45;79735.81;5052706;28;20116;-32
2022/11/19 04:45:51;;;;;;;26.63;15.25;;;;;;;-143.48;75.45;79743.75;5034848;28;20025;-33
2022/11/19 04:48:16;;;;;;;30.27;15.73;;;;;;;-143.48;75.47;79717.94;5052994;28;20029;-32
2022/11/19 04:50:41;;;;;;;30.02;16.13;;;;;;;-143.48;75.20;79745.72;5052750;28;20021;-32
2022/11/19 04:53:07;;;;;;;27.92;15.45;;;;;;;-143.48;75.81;79775.47;5053026;28;20025;-32
2022/11/19 04:55:32;;;;;;;29.20;16.10;;;;;;;-143.48;75.69;79793.34;5052768;28;20021;-33
2022/11/19 04:57:57;;;;;;;29.95;15.30;;;;;;;-143.48;75.43;79771.50;5052933;28;20073;-32
2022/11/19 05:00:23;;;;;;;26.67;14.70;;;;;;;-143.48;74.90;79783.41;5034725;28;20099;-34
2022/11/19 05:02:48;;;;;;;27.50;16.27;;;;;;;-143.48;75.43;79767.53;5052926;28;20102;-33
2022/11/19 05:05:13;;;;;;;28.75;16.63;;;;;;;-143.48;75.31;79773.50;5053157;28;20375;-33
2022/11/19 05:07:39;;;;;;;28.25;15.15;;;;;;;-143.48;75.25;79787.38;5052751;28;20464;-33
2022/11/19 05:10:04;;;;;;;28.60;14.85;;;;;;;-143.48;75.53;79773.50;5035080;28;20033;-34
2022/11/19 05:12:30;;;;;;;34.03;15.32;;;;;;;-143.48;75.25;79787.38;5052496;28;20029;-32
2022/11/19 05:14:55;;;;;;;26.67;15.20;;;;;;;-143.48;75.72;79813.19;5052400;28;20025;-33
2022/11/19 05:17:21;;;;;;;30.48;16.10;;;;;;;-143.48;76.16;79825.06;5052876;28;20029;-33
2022/11/19 05:19:46;;;;;;;27.30;15.18;;;;;;;-143.48;75.09;79795.31;5052417;28;20572;-32
2022/11/19 05:22:11;;;;;;;26.30;15.18;;;;;;;-143.48;74.54;79817.16;5053987;28;20029;-32
2022/11/19 05:24:37;;;;;;;31.63;15.30;;;;;;;-143.48;74.72;79777.47;5055980;28;20049;-33
2022/11/19 05:27:02;;;;;;;30.92;16.73;;;;;;;-143.48;74.94;79803.25;5056187;28;20017;-33
2022/11/19 05:29:27;;;;;;;27.60;14.88;;;;;;;-143.48;74.10;79803.25;5055904;28;20033;-33
2022/11/19 05:31:53;;;;;;;28.85;15.18;;;;;;;-143.48;74.75;79809.22;5037983;28;20531;-32
2022/11/19 05:34:18;;;;;;;26.45;14.98;;;;;;;-143.48;74.95;79821.09;5056069;28;20028;-32
2022/11/19 05:36:43;;;;;;;25.27;14.43;;;;;;;-143.48;74.64;79805.25;5055760;28;20029;-34
2022/11/19 05:39:09;;;;;;;28.75;15.20;;;;;;;-143.48;74.19;79815.16;5055678;28;20028;-34
2022/11/19 05:41:34;;;;;;;27.20;15.40;;;;;;;-143.48;74.29;79801.28;5055961;28;20064;-33
2022/11/19 05:43:59;;;;;;;26.75;15.13;;;;;;;-143.48;73.52;79757.63;5055758;28;20066;-33
2022/11/19 05:46:25;;;;;;;27.02;14.88;;;;;;;-143.48;73.76;79791.34;5055625;28;20067;-33
2022/11/19 05:48:50;;;;;;;25.80;14.43;;;;;;;-143.48;74.26;79846.91;5055895;28;20411;-33
2022/11/19 05:51:16;;;;;;;26.58;14.55;;;;;;;-143.48;75.18;79854.84;5055511;28;20035;-33
2022/11/19 05:53:42;;;;;;;27.05;14.90;;;;;;;-143.48;74.57;79864.75;5055691;28;20055;-33
2022/11/19 05:56:07;;;;;;;28.02;14.80;;;;;;;-143.48;73.95;79848.88;5055666;28;20028;-35
2022/11/19 05:58:33;;;;;;;26.17;14.88;;;;;;;-143.48;74.38;79868.72;5055727;28;20468;-33
2022/11/19 06:00:58;;;;;;;27.13;14.57;;;;;;;-143.48;74.41;79892.53;5055862;28;20032;-34
2022/11/19 06:03:24;;;;;;;24.73;14.30;;;;;;;-143.48;74.53;79888.56;5055558;28;20028;-34
2022/11/19 06:05:49;;;;;;;24.33;14.38;;;;;;;-143.48;74.75;79900.47;5055542;28;20024;-33
2022/11/19 06:08:14;;;;;;;26.75;14.57;;;;;;;-143.48;74.60;79896.50;5055501;28;20036;-33
2022/11/19 06:10:40;;;;;;;26.88;14.65;;;;;;;-143.48;74.04;79886.59;5055169;28;20021;-34
2022/11/19 06:13:05;;;;;;;24.75;14.20;;;;;;;-143.48;74.13;79892.53;5055023;28;20050;-33
2022/11/19 06:15:30;;;;;;;26.08;14.45;;;;;;;-143.48;74.62;79914.34;5055282;28;20025;-33
2022/11/19 06:17:56;;;;;;;26.17;13.68;;;;;;;-143.48;74.12;79904.44;5054983;28;20432;-33
2022/11/19 06:20:21;;;;;;;25.90;14.15;;;;;;;-143.48;74.12;79898.47;5054586;28;20098;-33
2022/11/19 06:22:46;;;;;;;26.92;14.52;;;;;;;-143.48;73.57;79906.41;5036900;28;20036;-33
2022/11/19 06:25:12;;;;;;;26.45;13.90;;;;;;;-143.48;72.87;79880.63;5055246;28;20056;-33
2022/11/19 06:27:37;;;;;;;27.52;14.70;;;;;;;-143.48;73.17;79902.44;5054791;28;20039;-33
2022/11/19 06:30:04;;;;;;;26.15;14.20;;;;;;;-143.48;73.75;79892.53;5055102;28;20037;-33
2022/11/19 06:32:29;;;;;;;25.10;13.98;;;;;;;-143.48;73.40;79870.72;5054433;28;20047;-33
2022/11/19 06:34:54;;;;;;;26.58;13.65;;;;;;;-143.48;73.59;79924.28;5054561;28;20104;-33
2022/11/19 06:37:23;;;;;;;23.48;13.57;;;;;;;-143.48;74.02;79936.19;5055236;28;20057;-35
2022/11/19 06:39:49;;;;;;;28.75;13.93;;;;;;;-143.48;74.21;79942.13;5036749;28;20365;-33
2022/11/19 06:44:58;;;;;;;23.95;13.15;;;;;;;-143.48;73.99;79940.16;5054951;28;20079;-33
2022/11/19 06:47:23;;;;;;;24.58;13.55;;;;;;;-143.48;72.96;79932.22;5036601;28;20384;-34
2022/11/19 06:49:48;;;;;;;24.20;12.90;;;;;;;-143.48;73.90;79942.13;5054586;28;20025;-34
2022/11/19 06:52:14;;;;;;;24.65;13.52;;;;;;;-143.48;73.76;79954.03;5054893;28;20036;-34
2022/11/19 06:54:39;;;;;;;31.20;14.40;;;;;;;-143.48;73.56;79942.13;5054562;28;20422;-33
2022/11/19 06:57:05;;;;;;;27.58;14.25;;;;;;;-143.48;74.51;80009.59;5054676;28;20028;-34
2022/11/19 06:59:31;;;;;;;28.08;14.05;;;;;;;-143.48;73.95;79971.88;5036331;28;20035;-33
2022/11/19 07:01:56;;;;;;;28.90;14.55;;;;;;;-143.48;74.26;79981.81;5054153;28;20398;-34
2022/11/19 07:04:21;;;;;;;25.75;14.25;;;;;;;-143.48;74.33;79965.94;5053557;28;20025;-34
2022/11/19 07:06:47;;;;;;;25.55;14.27;;;;;;;-143.48;74.68;79999.66;5053969;28;20431;-34
2022/11/19 07:09:12;;;;;;;26.95;13.80;;;;;;;-143.48;74.70;80031.41;5054048;28;20025;-34
2022/11/19 07:11:37;;;;;;;22.42;12.68;;;;;;;-143.48;74.59;80041.34;5054292;28;20052;-33
2022/11/19 07:14:02;;;;;;;26.80;12.75;;;;;;;-143.48;74.47;80043.31;5054406;28;20403;-34
2022/11/19 07:16:34;;;;;;;26.50;13.45;;;;;;;-143.48;73.72;79993.72;5053894;28;20074;-34
2022/11/19 07:19:03;;;;;;;24.80;13.05;;;;;;;-143.48;74.06;79985.78;5020055;28;20057;-32
2022/11/19 07:21:29;;;;;;;23.45;13.13;;;;;;;-143.48;73.30;79991.72;5035845;28;20049;-32
2022/11/19 07:23:55;;;;;;;26.08;13.85;;;;;;;-143.48;74.43;80039.34;5035730;28;20059;-33
2022/11/19 07:26:20;;;;;;;24.55;13.45;;;;;;;-143.48;74.67;80045.31;5054014;28;20021;-33
2022/11/19 07:28:46;;;;;;;28.00;13.63;;;;;;;-143.48;75.12;80086.97;5053616;28;20483;-33
2022/11/19 07:31:11;;;;;;;24.80;13.50;;;;;;;-143.48;74.51;80043.31;5053953;28;20017;-34
2022/11/19 07:33:38;;;;;;;22.58;13.30;;;;;;;-143.48;73.64;80019.50;5053633;28;20021;-33
2022/11/19 07:36:07;;;;;;;23.52;12.95;;;;;;;-143.48;72.37;80025.47;5053736;28;20032;-33
2022/11/19 07:38:33;;;;;;;24.83;13.30;;;;;;;-143.48;73.56;80061.16;5053494;28;20028;-33
2022/11/19 07:40:59;;;;;;;25.45;12.23;;;;;;;-143.48;74.21;80067.13;5053410;28;20035;-33
2022/11/19 07:43:24;;;;;;;23.45;12.68;;;;;;;-143.48;73.11;80061.16;5053705;28;20017;-33
2022/11/19 07:45:49;;;;;;;24.65;13.65;;;;;;;-143.48;72.91;80049.28;5053368;28;20479;-33
2022/11/19 07:48:15;;;;;;;23.38;12.75;;;;;;;-143.48;73.27;80084.97;5053733;28;20052;-34
2022/11/19 07:50:40;;;;;;;26.08;13.52;;;;;;;-143.48;72.93;80084.97;5053640;28;20060;-33
2022/11/19 07:53:07;;;;;;;28.45;13.35;;;;;;;-143.48;73.51;80124.66;5054033;28;20082;-33
2022/11/19 07:55:32;;;;;;;24.02;12.98;;;;;;;-143.48;73.93;80124.66;5053278;28;20033;-33
2022/11/19 07:57:58;;;;;;;24.52;13.65;;;;;;;-143.48;73.93;80170.28;5053263;28;20488;-33
2022/11/19 08:00:24;;;;;;;26.35;13.65;;;;;;;-143.48;74.36;80132.59;5035413;28;20052;-34
2022/11/19 08:02:49;;;;;;;24.83;13.70;;;;;;;-143.48;74.04;80154.44;5053340;28;20025;-33
2022/11/19 08:05:15;;;;;;;24.52;14.20;;;;;;;-143.48;74.96;80194.09;5053546;28;20020;-33
2022/11/19 08:07:40;;;;;;;25.85;14.00;;;;;;;-143.48;74.56;80134.59;5053794;28;20375;-34
2022/11/19 08:10:07;;;;;;;29.27;14.32;;;;;;;-143.48;74.97;80152.44;5053211;28;20078;-33
2022/11/19 08:12:33;;;;;;;28.02;14.13;;;;;;;-143.48;74.83;80160.38;5052936;28;20025;-34
2022/11/19 08:14:58;;;;;;;26.65;15.13;;;;;;;-143.48;73.77;80116.72;5053730;28;20091;-34
2022/11/19 08:20:08;;;;;;;26.52;13.70;;;;;;;-143.48;74.44;80194.09;5053157;28;20499;-34
2022/11/19 08:22:35;;;;;;;25.98;13.82;;;;;;;-143.48;74.93;80198.06;5052945;28;20083;-35
2022/11/19 08:25:01;;;;;;;26.92;14.68;;;;;;;-143.48;74.48;80174.25;5034356;28;20025;-34
2022/11/19 08:27:27;;;;;;;26.52;14.05;;;;;;;-143.48;74.51;80184.19;5052949;28;20075;-34
2022/11/19 08:29:52;;;;;;;27.85;14.95;;;;;;;-143.48;74.35;80180.22;5052934;28;20113;-34
2022/11/19 08:32:17;;;;;;;27.77;13.93;;;;;;;-143.48;73.28;80130.63;5053231;28;20028;-34
2022/11/19 08:34:43;;;;;;;30.02;15.02;;;;;;;-143.48;73.06;80118.72;5052806;28;20052;-33
2022/11/19 08:37:12;;;;;;;27.48;13.98;;;;;;;-143.48;72.45;80140.53;5034959;28;20029;-32
2022/11/19 08:39:38;;;;;;;27.70;13.10;;;;;;;-143.48;71.95;80132.59;5052527;28;20017;-32
2022/11/19 08:44:47;;;;;;;26.35;14.48;;;;;;;-143.48;71.45;80090.94;5052567;28;20095;-32
2022/11/19 08:47:13;;;;;;;23.38;14.18;;;;;;;-143.48;70.65;80102.84;5052537;28;20024;-34
2022/11/19 08:49:38;;;;;;;24.35;12.48;;;;;;;-143.48;70.62;80102.84;5052570;28;20088;-33
2022/11/19 08:52:03;;;;;;;25.05;14.25;;;;;;;-143.48;70.85;80114.75;5052484;28;20021;-33
2022/11/19 08:54:29;;;;;;;27.38;14.20;;;;;;;-143.48;70.89;80152.44;5052158;28;20107;-33
2022/11/19 08:56:54;;;;;;;29.85;13.82;;;;;;;-143.48;70.83;80118.72;5052955;28;20025;-32
2022/11/19 08:59:20;;;;;;;28.33;14.45;;;;;;;-143.48;71.10;80140.53;5054116;28;20052;-33
2022/11/19 09:01:47;;;;;;;25.33;13.95;;;;;;;-143.48;70.15;80144.50;5053946;28;20025;-34
2022/11/19 09:04:12;;;;;;;26.52;13.43;;;;;;;-143.48;69.51;80083.00;5054674;28;20439;-34
2022/11/19 09:06:37;;;;;;;24.55;12.70;;;;;;;-143.48;68.21;80118.72;5054764;28;20020;-33
2022/11/19 09:09:03;;;;;;;23.10;13.18;;;;;;;-143.48;68.80;80112.75;5054445;28;20064;-34
2022/11/19 09:11:32;;;;;;;24.35;13.20;;;;;;;-143.48;68.87;80088.94;5056343;28;20436;-34
2022/11/19 09:13:58;;;;;;;21.33;12.48;;;;;;;-143.48;68.72;80086.97;5038827;28;20029;-34
2022/11/19 09:16:23;;;;;;;24.70;12.63;;;;;;;-143.48;68.93;80090.94;5056137;28;20045;-33
2022/11/19 09:18:48;;;;;;;21.08;12.60;;;;;;;-143.48;69.01;80090.94;5056040;28;20083;-33
2022/11/19 09:21:14;;;;;;;23.63;12.95;;;;;;;-143.48;68.01;80108.78;5056322;28;20502;-34
2022/11/19 09:23:41;;;;;;;23.15;12.68;;;;;;;-143.48;67.92;80039.34;5056351;28;20021;-33
2022/11/19 09:26:09;;;;;;;22.58;12.68;;;;;;;-143.48;67.24;80039.34;5056337;28;20075;-33
2022/11/19 09:28:35;;;;;;;25.08;12.38;;;;;;;-143.48;67.35;80108.78;5056374;28;20021;-33
2022/11/19 09:31:11;;;;;;;20.30;12.35;;;;;;;-143.48;66.67;80079.03;5056137;28;20455;-33
2022/11/19 09:33:41;;;;;;;20.13;11.57;;;;;;;-143.48;66.83;80086.97;5037811;28;20530;-33
2022/11/19 09:36:07;;;;;;;23.60;12.40;;;;;;;-143.48;67.75;80069.09;5055946;28;20028;-34
2022/11/19 09:38:34;;;;;;;23.13;11.98;;;;;;;-143.48;66.18;79991.72;5056278;28;20028;-33
2022/11/19 09:41:18;;;;;;;20.52;13.02;;;;;;;-143.48;57.00;79642.56;5056299;28;20028;-34
2022/11/19 09:44:23;;;;;;;19.70;13.13;;;;;;;-143.48;51.37;79563.22;5055586;28;20039;-34
2022/11/19 09:47:20;;;;;;;18.27;12.30;;;;;;;-143.48;47.38;79356.91;5027082;28;20067;-33
2022/11/19 09:49:54;;;;;;;15.50;12.43;;;;;;;-143.48;46.54;79222.00;5056016;28;20029;-33
2022/11/19 09:52:22;;;;;;;15.98;11.82;;;;;;;-143.48;42.41;79069.28;5055908;28;20464;-33
2022/11/19 09:54:51;;;;;;;14.43;11.02;;;;;;;-143.48;41.81;78989.94;5020947;28;20464;-33
2022/11/19 09:57:43;;;;;;;13.43;10.88;;;;;;;-143.48;39.85;78928.44;5055463;28;20032;-33
2022/11/19 10:00:09;;;;;;;12.10;10.43;;;;;;;-143.48;42.91;79154.56;5021188;28;20032;-33
2022/11/19 10:02:34;;;;;;;13.65;10.77;;;;;;;-143.48;41.02;79106.97;5055617;28;20268;-34
2022/11/19 10:05:00;;;;;;;12.63;10.05;;;;;;;-143.48;38.71;78920.50;5037533;28;20471;-34
2022/11/19 10:07:34;;;;;;;11.90;10.00;;;;;;;-143.48;38.80;78914.56;5054701;28;20033;-34
2022/11/19 10:10:27;;;;;;;11.85;9.90;;;;;;;-143.48;40.62;79047.44;5054975;28;20112;-33
2022/11/19 10:13:16;;;;;;;11.27;9.73;;;;;;;-143.48;39.12;78966.13;5054924;28;20013;-34
2022/11/19 10:16:09;;;;;;;10.98;9.40;;;;;;;-143.48;38.24;78944.31;5055409;28;20395;-33
2022/11/19 10:18:57;;;;;;;10.20;9.10;;;;;;;-143.48;37.12;78833.22;5054747;28;20076;-34
2022/11/19 10:21:48;;;;;;;11.30;10.10;;;;;;;-143.48;38.24;78993.91;5055191;28;20041;-33
2022/11/19 10:24:21;;;;;;;10.05;8.98;;;;;;;-143.48;36.70;78743.97;5054716;28;20029;-34
2022/11/19 10:26:57;;;;;;;12.95;9.85;;;;;;;-143.48;36.97;78799.50;5054620;28;20017;-33
2022/11/19 10:29:27;;;;;;;11.65;9.50;;;;;;;-143.48;35.99;78740.00;5054526;28;20032;-33
2022/11/19 10:31:52;;;;;;;9.52;8.52;;;;;;;-143.48;36.98;78857.03;5054752;28;20463;-33
2022/11/19 10:34:26;;;;;;;10.10;8.95;;;;;;;-143.48;35.69;78734.06;5054658;28;20114;-33
2022/11/19 10:37:03;;;;;;;9.88;8.88;;;;;;;-143.48;34.39;78753.91;5054505;28;20080;-33
2022/11/19 10:39:40;;;;;;;10.48;8.90;;;;;;;-143.48;36.30;78849.09;5054778;28;20040;-34
2022/11/19 10:42:18;;;;;;;10.77;9.10;;;;;;;-143.48;34.40;78670.59;5054467;28;20021;-33
2022/11/19 10:45:08;;;;;;;12.18;9.68;;;;;;;-143.48;35.07;78797.53;5054678;28;20074;-34
2022/11/19 10:47:46;;;;;;;12.23;9.13;;;;;;;-143.48;35.46;78813.41;5054499;28;20027;-34
2022/11/19 10:50:16;;;;;;;9.55;8.45;;;;;;;-143.48;34.79;78805.47;5054389;28;20037;-34
2022/11/19 10:52:47;;;;;;;11.35;8.98;;;;;;;-143.48;39.90;79253.75;5054641;28;20379;-34
2022/11/19 10:55:31;;;;;;;12.13;10.25;;;;;;;-143.48;44.91;79535.44;5054238;28;20052;-33
2022/11/19 10:58:19;;;;;;;11.68;10.13;;;;;;;-143.48;47.43;79585.03;5054211;28;20475;-34
2022/11/19 11:00:45;;;;;;;11.98;9.63;;;;;;;-143.48;43.05;79259.69;5054286;28;20103;-33
2022/11/19 11:03:21;;;;;;;12.93;9.88;;;;;;;-143.48;37.08;78817.38;5054130;28;20117;-33
2022/11/19 11:05:56;;;;;;;12.55;9.48;;;;;;;-143.48;37.05;78809.44;5054014;28;20029;-35
2022/11/19 11:08:21;;;;;;;11.13;8.73;;;;;;;-143.48;36.51;78976.03;5053771;28;20480;-34
2022/11/19 11:10:47;;;;;;;10.40;8.98;;;;;;;-143.48;34.04;78718.19;5053843;28;20029;-33
2022/11/19 11:16:44;;;;;;;13.57;8.80;;;;;;;-143.48;33.70;78694.41;5054056;28;20036;-33
2022/11/19 11:19:27;;;;;;;10.98;8.88;;;;;;;-143.48;34.50;78749.94;5053222;28;20052;-33
2022/11/19 11:21:56;;;;;;;10.13;9.02;;;;;;;-143.48;35.87;78918.53;5054365;28;20025;-33
2022/11/19 11:24:31;;;;;;;11.23;9.10;;;;;;;-143.48;35.55;78829.25;5054035;28;20047;-34
2022/11/19 11:27:24;;;;;;;9.20;8.23;;;;;;;-143.48;34.59;78868.94;5054055;28;20021;-35
2022/11/19 11:30:03;;;;;;;9.43;7.93;;;;;;;-143.48;34.97;78787.63;5054082;28;20029;-34
2022/11/19 11:32:30;;;;;;;10.90;8.30;;;;;;;-143.48;35.53;78938.34;5053652;28;20021;-34
2022/11/19 11:34:56;;;;;;;12.15;8.63;;;;;;;-143.48;34.76;78751.91;5053940;28;20024;-35